Time;durP1;ratioP1;P1;durP2;ratioP2;P2;SDS_P1;SDS_P2;PMS_P1;PMS_P2;Temp;Humidity;BMP_temperature;BMP_pressure;BME280_temperature;BME280_humidity;BME280_pressure;Samples;Min_cycle;Max_cycle;Signal;HPM_P1;HPM_P2
2023/12/24 00:00:37;;;;;;;;;;;;;;;14.38;55.19;99881.50;4978632;28;7015;-74
2023/12/24 00:03:04;;;;;;;;;;;;;;;14.34;55.45;99884.88;4984565;28;7215;-75
2023/12/24 00:05:29;;;;;;;;;;;;;;;14.26;55.40;99888.13;4983382;28;7316;-75
2023/12/24 00:07:55;;;;;;;;;;;;;;;14.20;55.57;99888.00;5001408;28;6882;-74
2023/12/24 00:10:20;;;;;;;;;;;;;;;14.12;56.11;99897.22;4970960;28;6946;-75
2023/12/24 00:12:45;;;;;;;;;;;;;;;14.06;56.92;99894.47;4986561;28;6808;-74
2023/12/24 00:15:11;;;;;;;;;;;;;;;14.01;56.93;99899.50;4991279;28;6791;-74
2023/12/24 00:17:36;;;;;;;;;;;;;;;13.97;57.30;99903.72;4992718;28;7204;-74
2023/12/24 00:20:02;;;;;;;;;;;;;;;13.97;57.43;99875.38;4975538;28;7129;-74
2023/12/24 00:22:28;;;;;;;;;;;;;;;13.99;56.81;99911.50;4988309;28;7137;-75
2023/12/24 00:24:54;;;;;;;;;;;;;;;14.03;57.00;99901.31;4988583;28;6909;-75
2023/12/24 00:27:19;;;;;;;;;;;;;;;14.08;57.31;99904.00;4993997;28;6870;-75
2023/12/24 00:29:44;;;;;;;;;;;;;;;14.14;56.74;99893.81;4975766;28;7263;-74
2023/12/24 00:32:10;;;;;;;;;;;;;;;14.21;56.61;99904.31;4992517;28;6788;-75
2023/12/24 00:34:35;;;;;;;;;;;;;;;14.21;56.70;99889.72;4989813;28;6850;-74
2023/12/24 00:37:01;;;;;;;;;;;;;;;14.24;56.37;99900.09;4975157;28;6906;-75
2023/12/24 00:39:26;;;;;;;;;;;;;;;14.25;55.77;99891.53;5011378;28;6937;-75
2023/12/24 00:41:52;;;;;;;;;;;;;;;14.23;56.69;99893.22;5004495;28;6760;-75
2023/12/24 00:44:17;;;;;;;;;;;;;;;14.20;56.20;99899.97;5009466;28;6787;-75
2023/12/24 00:46:44;;;;;;;;;;;;;;;14.16;56.54;99879.31;5011099;28;6784;-75
2023/12/24 00:49:10;;;;;;;;;;;;;;;14.09;56.37;99881.66;4996699;28;7235;-75
2023/12/24 00:51:43;;;;;;;;;;;;;;;13.98;56.88;99895.16;5009263;28;6795;-75
2023/12/24 00:54:11;;;;;;;;;;;;;;;13.88;57.06;99888.00;5025140;28;7426;-75
2023/12/24 00:56:37;;;;;;;;;;;;;;;13.79;57.67;99886.06;5004614;28;6800;-75
2023/12/24 00:59:02;;;;;;;;;;;;;;;13.72;57.83;99891.88;5026167;28;6784;-75
2023/12/24 01:01:28;;;;;;;;;;;;;;;13.68;57.70;99872.03;5007086;28;6784;-75
2023/12/24 01:03:53;;;;;;;;;;;;;;;13.67;57.86;99885.75;5012665;28;6779;-76
2023/12/24 01:06:19;;;;;;;;;;;;;;;13.65;58.68;99872.81;5009157;28;6932;-76
2023/12/24 01:08:44;;;;;;;;;;;;;;;13.69;57.87;99879.78;4989536;28;6995;-75
2023/12/24 01:11:10;;;;;;;;;;;;;;;13.74;58.11;99867.03;5014906;28;6767;-75
2023/12/24 01:13:35;;;;;;;;;;;;;;;13.78;58.36;99871.47;5007504;28;6776;-75
2023/12/24 01:16:01;;;;;;;;;;;;;;;13.86;57.94;99874.22;5010591;28;6772;-76
2023/12/24 01:18:27;;;;;;;;;;;;;;;13.95;58.05;99876.16;5009585;28;6935;-75
2023/12/24 01:20:52;;;;;;;;;;;;;;;14.00;57.26;99867.75;5007183;28;6756;-76
2023/12/24 01:23:18;;;;;;;;;;;;;;;14.05;57.40;99885.00;4993380;28;7106;-75
2023/12/24 01:25:43;;;;;;;;;;;;;;;14.12;57.55;99889.50;5010431;28;6763;-75
2023/12/24 01:28:09;;;;;;;;;;;;;;;14.16;57.38;99878.41;5010665;28;6760;-75
2023/12/24 01:30:34;;;;;;;;;;;;;;;14.20;56.91;99857.06;5009993;28;6768;-75
2023/12/24 01:33:00;;;;;;;;;;;;;;;14.24;57.21;99848.56;5010671;28;6776;-75
2023/12/24 01:35:25;;;;;;;;;;;;;;;14.28;57.63;99847.78;5007815;28;6855;-75
2023/12/24 01:37:50;;;;;;;;;;;;;;;14.27;56.77;99846.03;5007242;28;6840;-75
2023/12/24 01:40:16;;;;;;;;;;;;;;;14.25;56.90;99833.97;4994259;28;6931;-75
2023/12/24 01:42:45;;;;;;;;;;;;;;;14.17;57.22;99833.75;5011276;28;6964;-76
2023/12/24 01:45:11;;;;;;;;;;;;;;;14.08;57.12;99823.22;4994397;28;7117;-76
2023/12/24 01:47:37;;;;;;;;;;;;;;;13.96;57.36;99801.50;4984105;28;7162;-74
2023/12/24 01:50:03;;;;;;;;;;;;;;;13.87;58.08;99807.31;4982756;28;7030;-75
2023/12/24 01:52:29;;;;;;;;;;;;;;;13.78;57.74;99786.47;4984001;28;7007;-73
2023/12/24 01:54:54;;;;;;;;;;;;;;;13.72;57.83;99800.06;4986898;28;6874;-74
2023/12/24 01:57:20;;;;;;;;;;;;;;;13.67;58.58;99782.75;4984116;28;6832;-73
2023/12/24 01:59:46;;;;;;;;;;;;;;;13.61;59.48;99783.44;4989144;28;7129;-76
2023/12/24 02:02:12;;;;;;;;;;;;;;;13.57;59.65;99772.22;4981947;28;6812;-75
2023/12/24 02:04:38;;;;;;;;;;;;;;;13.55;59.50;99765.28;4968480;28;7079;-74
2023/12/24 02:07:05;;;;;;;;;;;;;;;13.53;59.94;99778.09;4975453;28;7273;-75
2023/12/24 02:09:31;;;;;;;;;;;;;;;13.51;59.84;99778.88;4983680;28;6804;-75
2023/12/24 02:11:56;;;;;;;;;;;;;;;13.50;60.32;99788.34;4985609;28;7256;-74
2023/12/24 02:14:22;;;;;;;;;;;;;;;13.48;60.12;99777.13;4983503;28;6860;-75
2023/12/24 02:16:49;;;;;;;;;;;;;;;13.49;60.91;99771.16;5002411;28;7154;-74
2023/12/24 02:19:18;;;;;;;;;;;;;;;13.46;60.39;99774.50;4990520;28;6975;-74
2023/12/24 02:21:44;;;;;;;;;;;;;;;13.46;60.59;99778.75;4986111;28;6816;-74
2023/12/24 02:24:10;;;;;;;;;;;;;;;13.45;60.76;99765.03;4985017;28;6997;-74
2023/12/24 02:26:42;;;;;;;;;;;;;;;13.43;60.50;99779.56;4984869;28;6796;-73
2023/12/24 02:29:24;;;;;;;;;;;;;;;13.43;61.33;99779.56;4989458;28;6958;-74
2023/12/24 02:31:56;;;;;;;;;;;;;;;13.44;61.35;99782.97;4987806;28;7142;-74
2023/12/24 02:34:22;;;;;;;;;;;;;;;13.45;61.32;99787.31;4983957;28;7183;-75
2023/12/24 02:36:48;;;;;;;;;;;;;;;13.46;61.76;99782.22;4983741;28;7223;-73
2023/12/24 02:39:14;;;;;;;;;;;;;;;13.47;62.08;99777.94;4981416;28;7242;-74
2023/12/24 02:41:40;;;;;;;;;;;;;;;13.47;61.08;99776.25;4985687;28;6844;-74
2023/12/24 02:44:06;;;;;;;;;;;;;;;13.47;61.96;99775.34;4986367;28;7553;-73
2023/12/24 02:46:31;;;;;;;;;;;;;;;13.49;62.17;99773.72;4984405;28;6796;-74
2023/12/24 02:48:57;;;;;;;;;;;;;;;13.47;61.21;99778.81;4988831;28;6796;-74
2023/12/24 02:51:22;;;;;;;;;;;;;;;13.49;62.06;99776.28;5004996;28;6962;-75
2023/12/24 02:53:48;;;;;;;;;;;;;;;13.50;61.81;99766.84;4991569;28;7023;-75
2023/12/24 02:56:13;;;;;;;;;;;;;;;13.52;62.21;99773.78;4992001;28;6941;-74
2023/12/24 02:58:39;;;;;;;;;;;;;;;13.54;61.87;99776.41;4988984;28;6831;-74
2023/12/24 03:01:04;;;;;;;;;;;;;;;13.55;61.97;99762.72;4988462;28;6987;-73
2023/12/24 03:03:30;;;;;;;;;;;;;;;13.56;62.11;99764.44;4987209;28;6859;-75
2023/12/24 03:05:55;;;;;;;;;;;;;;;13.58;61.35;99767.91;5004348;28;7256;-75
2023/12/24 03:08:21;;;;;;;;;;;;;;;13.58;61.21;99748.22;5003221;28;6824;-75
2023/12/24 03:10:46;;;;;;;;;;;;;;;13.59;62.12;99742.22;4988862;28;6780;-74
2023/12/24 03:13:12;;;;;;;;;;;;;;;13.59;62.15;99733.63;4986941;28;6791;-74
2023/12/24 03:15:38;;;;;;;;;;;;;;;13.60;62.08;99740.50;4972856;28;7114;-75
2023/12/24 03:18:04;;;;;;;;;;;;;;;13.59;61.41;99728.47;5005207;28;6848;-75
2023/12/24 03:20:29;;;;;;;;;;;;;;;13.60;62.26;99735.34;4992080;28;7016;-75
2023/12/24 03:22:54;;;;;;;;;;;;;;;13.59;62.15;99719.06;4974699;28;6960;-73
2023/12/24 03:25:20;;;;;;;;;;;;;;;13.59;62.08;99713.91;4990069;28;6779;-74
2023/12/24 03:27:45;;;;;;;;;;;;;;;13.58;61.83;99725.03;4990617;28;6966;-74
2023/12/24 03:30:11;;;;;;;;;;;;;;;13.57;62.48;99720.72;4971782;28;7019;-74
2023/12/24 03:32:36;;;;;;;;;;;;;;;13.56;62.35;99718.97;4967375;28;7066;-75
2023/12/24 03:35:03;;;;;;;;;;;;;;;13.57;62.62;99725.00;4992612;28;6772;-74
2023/12/24 03:37:28;;;;;;;;;;;;;;;13.56;62.46;99731.81;4990799;28;7203;-75
2023/12/24 03:39:54;;;;;;;;;;;;;;;13.56;62.12;99731.81;4990199;28;6993;-75
2023/12/24 03:42:19;;;;;;;;;;;;;;;13.55;61.92;99721.50;4970965;28;6966;-75
2023/12/24 03:44:44;;;;;;;;;;;;;;;13.56;61.98;99715.53;4979037;28;7205;-75
2023/12/24 03:47:10;;;;;;;;;;;;;;;13.55;62.07;99694.03;4995395;28;6941;-75
2023/12/24 03:49:35;;;;;;;;;;;;;;;13.55;62.09;99701.78;4993802;28;6960;-75
2023/12/24 03:52:01;;;;;;;;;;;;;;;13.56;62.10;99702.66;4975438;28;6964;-74
2023/12/24 03:54:26;;;;;;;;;;;;;;;13.55;62.26;99699.19;4996737;28;6957;-76
2023/12/24 03:56:52;;;;;;;;;;;;;;;13.55;62.44;99691.47;4994602;28;7309;-74
2023/12/24 03:59:17;;;;;;;;;;;;;;;13.55;62.40;99685.47;4995153;28;6783;-75
2023/12/24 04:01:43;;;;;;;;;;;;;;;13.54;62.72;99694.03;4995888;28;6979;-75
2023/12/24 04:04:08;;;;;;;;;;;;;;;13.53;62.38;99700.00;4977651;28;6962;-75
2023/12/24 04:06:34;;;;;;;;;;;;;;;13.53;62.56;99695.72;4976315;28;6975;-75
2023/12/24 04:08:59;;;;;;;;;;;;;;;13.52;63.16;99691.41;4987316;28;6840;-77
2023/12/24 04:11:25;;;;;;;;;;;;;;;13.52;62.80;99686.25;4978912;28;6792;-76
2023/12/24 04:13:50;;;;;;;;;;;;;;;13.53;62.57;99684.56;4983621;28;6840;-77
2023/12/24 04:16:17;;;;;;;;;;;;;;;13.51;62.45;99683.63;4977089;28;6851;-77
2023/12/24 04:18:42;;;;;;;;;;;;;;;13.52;62.45;99680.22;4984775;28;6987;-76
2023/12/24 04:21:08;;;;;;;;;;;;;;;13.52;63.11;99682.81;4986199;28;6958;-76
2023/12/24 04:23:33;;;;;;;;;;;;;;;13.49;62.33;99683.63;4977833;28;6969;-76
2023/12/24 04:25:59;;;;;;;;;;;;;;;13.49;62.65;99675.91;4981019;28;6951;-77
2023/12/24 04:28:24;;;;;;;;;;;;;;;13.48;62.56;99676.72;4994451;28;7256;-78
2023/12/24 04:30:50;;;;;;;;;;;;;;;13.48;62.42;99653.56;4980341;28;6871;-77
2023/12/24 04:33:15;;;;;;;;;;;;;;;13.47;63.29;99667.25;4962180;28;7108;-78
2023/12/24 04:35:41;;;;;;;;;;;;;;;13.47;63.13;99662.97;5000592;28;7242;-77
2023/12/24 04:38:06;;;;;;;;;;;;;;;13.47;62.61;99673.28;4984219;28;7155;-78
2023/12/24 04:40:32;;;;;;;;;;;;;;;13.49;63.21;99664.72;4955743;28;6969;-78
2023/12/24 04:42:57;;;;;;;;;;;;;;;13.48;62.52;99658.72;4985467;28;7158;-77
2023/12/24 04:45:23;;;;;;;;;;;;;;;13.48;62.69;99674.16;4983767;28;7098;-78
2023/12/24 04:47:49;;;;;;;;;;;;;;;13.48;63.10;99666.44;4985089;28;7187;-78
2023/12/24 04:50:15;;;;;;;;;;;;;;;13.47;63.20;99668.13;4981929;28;6807;-78
2023/12/24 04:52:40;;;;;;;;;;;;;;;13.47;62.68;99657.81;4983276;28;7121;-77
2023/12/24 04:55:06;;;;;;;;;;;;;;;13.46;62.98;99666.38;4975535;28;7164;-78
2023/12/24 04:57:32;;;;;;;;;;;;;;;13.47;63.18;99656.94;4968393;28;6943;-77
2023/12/24 04:59:57;;;;;;;;;;;;;;;13.47;63.53;99662.97;4980614;28;6909;-78
2023/12/24 05:02:23;;;;;;;;;;;;;;;13.46;62.93;99650.94;4982312;28;6800;-77
2023/12/24 05:04:49;;;;;;;;;;;;;;;13.47;63.13;99652.69;4985042;28;7762;-77
2023/12/24 05:07:14;;;;;;;;;;;;;;;13.47;63.05;99656.94;4982306;28;7206;-78
2023/12/24 05:09:41;;;;;;;;;;;;;;;13.46;63.42;99652.63;4978149;28;6768;-78
2023/12/24 05:12:07;;;;;;;;;;;;;;;13.46;63.03;99656.09;4979909;28;7174;-77
2023/12/24 05:14:34;;;;;;;;;;;;;;;13.47;63.34;99662.97;4982460;28;6934;-77
2023/12/24 05:16:59;;;;;;;;;;;;;;;13.46;63.74;99656.09;4980421;28;6791;-77
2023/12/24 05:19:25;;;;;;;;;;;;;;;13.46;63.24;99645.78;5012129;28;6940;-76
2023/12/24 05:21:50;;;;;;;;;;;;;;;13.47;63.45;99657.81;5003022;28;7027;-75
2023/12/24 05:24:16;;;;;;;;;;;;;;;13.49;63.32;99639.84;5004914;28;6764;-75
2023/12/24 05:26:41;;;;;;;;;;;;;;;13.49;63.62;99638.97;5008343;28;7113;-75
2023/12/24 05:29:06;;;;;;;;;;;;;;;13.49;63.94;99657.00;5006142;28;6772;-75
2023/12/24 05:31:32;;;;;;;;;;;;;;;13.49;62.79;99641.53;5008736;28;7284;-76
2023/12/24 05:33:57;;;;;;;;;;;;;;;13.50;63.06;99643.28;4998557;28;6976;-75
2023/12/24 05:36:23;;;;;;;;;;;;;;;13.50;63.35;99633.00;5011003;28;6768;-75
2023/12/24 05:38:48;;;;;;;;;;;;;;;13.50;63.45;99639.03;5007041;28;6990;-76
2023/12/24 05:41:15;;;;;;;;;;;;;;;13.52;63.67;99639.03;4993392;28;7046;-76
2023/12/24 05:43:41;;;;;;;;;;;;;;;13.53;62.92;99645.94;5005083;28;8448;-76
2023/12/24 05:46:13;;;;;;;;;;;;;;;13.53;63.85;99646.81;5008840;28;6930;-76
2023/12/24 05:48:39;;;;;;;;;;;;;;;13.53;63.92;99643.38;5010174;28;6824;-76
2023/12/24 05:51:04;;;;;;;;;;;;;;;13.54;64.10;99643.41;5011054;28;6987;-75
2023/12/24 05:53:30;;;;;;;;;;;;;;;13.53;63.43;99636.50;4989180;28;7037;-75
2023/12/24 05:55:55;;;;;;;;;;;;;;;13.55;63.87;99631.41;5007755;28;6912;-75
2023/12/24 05:58:21;;;;;;;;;;;;;;;13.57;63.68;99632.31;5010304;28;6775;-76
2023/12/24 06:00:47;;;;;;;;;;;;;;;13.58;64.01;99634.94;5009357;28;6768;-75
2023/12/24 06:03:13;;;;;;;;;;;;;;;13.59;63.65;99630.63;5021784;28;7248;-75
2023/12/24 06:05:38;;;;;;;;;;;;;;;13.60;63.51;99643.56;5008088;28;6943;-76
2023/12/24 06:08:04;;;;;;;;;;;;;;;13.61;64.13;99645.28;4988209;28;6930;-76
2023/12/24 06:10:29;;;;;;;;;;;;;;;13.61;63.72;99645.28;5011215;28;7155;-76
2023/12/24 06:12:55;;;;;;;;;;;;;;;13.63;64.16;99640.19;4987124;28;7249;-75
2023/12/24 06:15:20;;;;;;;;;;;;;;;13.63;63.61;99642.75;5009317;28;6772;-76
2023/12/24 06:17:46;;;;;;;;;;;;;;;13.63;63.68;99642.75;5003826;28;7052;-76
2023/12/24 06:20:11;;;;;;;;;;;;;;;13.65;64.13;99643.66;5009279;28;6780;-75
2023/12/24 06:22:37;;;;;;;;;;;;;;;13.66;64.21;99654.81;4999645;28;6752;-75
2023/12/24 06:25:03;;;;;;;;;;;;;;;13.67;64.07;99649.72;5018137;28;7170;-75
2023/12/24 06:27:28;;;;;;;;;;;;;;;13.68;64.25;99651.44;5001211;28;6804;-75
2023/12/24 06:29:54;;;;;;;;;;;;;;;13.70;63.98;99646.34;4990313;28;6947;-76
2023/12/24 06:32:19;;;;;;;;;;;;;;;13.70;63.64;99649.78;4993710;28;6872;-76
2023/12/24 06:34:46;;;;;;;;;;;;;;;13.70;63.96;99639.47;4974413;28;7121;-76
2023/12/24 06:37:11;;;;;;;;;;;;;;;13.71;63.83;99624.91;4958347;28;7356;-76
2023/12/24 06:39:37;;;;;;;;;;;;;;;13.72;64.04;99649.81;4975434;28;6808;-76
2023/12/24 06:42:03;;;;;;;;;;;;;;;13.73;64.45;99641.25;4978118;28;7368;-76
2023/12/24 06:44:28;;;;;;;;;;;;;;;13.74;63.71;99636.16;4978696;28;7245;-76
2023/12/24 06:46:54;;;;;;;;;;;;;;;13.76;64.66;99643.88;4993908;28;7225;-76
2023/12/24 06:49:19;;;;;;;;;;;;;;;13.77;64.14;99647.34;4979746;28;6980;-75
2023/12/24 06:51:45;;;;;;;;;;;;;;;13.77;64.22;99634.47;4984081;28;6855;-75
2023/12/24 06:54:10;;;;;;;;;;;;;;;13.77;64.60;99644.78;4985175;28;7246;-76
2023/12/24 06:56:36;;;;;;;;;;;;;;;13.77;64.52;99637.03;4957882;28;8090;-76
2023/12/24 06:59:02;;;;;;;;;;;;;;;13.78;64.55;99643.94;4956200;28;6962;-76
2023/12/24 07:01:28;;;;;;;;;;;;;;;13.77;63.73;99643.06;4972068;28;6983;-76
2023/12/24 07:03:54;;;;;;;;;;;;;;;13.77;63.95;99648.22;4957406;28;7035;-75
2023/12/24 07:06:19;;;;;;;;;;;;;;;13.78;64.02;99637.09;4961856;28;6975;-75
2023/12/24 07:08:45;;;;;;;;;;;;;;;13.79;64.45;99632.78;4976557;28;6959;-75
2023/12/24 07:11:10;;;;;;;;;;;;;;;13.78;63.84;99638.78;4969787;28;7248;-75
2023/12/24 07:13:36;;;;;;;;;;;;;;;13.77;64.16;99613.88;4984797;28;6950;-75
2023/12/24 07:16:02;;;;;;;;;;;;;;;13.76;64.15;99607.81;4974110;28;7492;-77
2023/12/24 07:18:28;;;;;;;;;;;;;;;13.76;63.81;99623.28;4968707;28;7168;-76
2023/12/24 07:20:53;;;;;;;;;;;;;;;13.75;64.07;99621.53;4968274;28;7039;-76
2023/12/24 07:23:19;;;;;;;;;;;;;;;13.74;64.28;99633.56;4976061;28;7006;-76
2023/12/24 07:25:44;;;;;;;;;;;;;;;13.74;64.42;99625.84;4968969;28;6950;-76
2023/12/24 07:28:10;;;;;;;;;;;;;;;13.75;64.34;99621.53;4958436;28;6973;-76
2023/12/24 07:30:35;;;;;;;;;;;;;;;13.74;64.13;99605.25;4975002;28;6780;-76
2023/12/24 07:33:03;;;;;;;;;;;;;;;13.75;63.99;99627.59;4946138;28;7810;-76
2023/12/24 07:35:28;;;;;;;;;;;;;;;13.75;64.59;99622.44;4976916;28;6817;-76
2023/12/24 07:37:53;;;;;;;;;;;;;;;13.74;64.09;99619.81;4973952;28;6803;-76
2023/12/24 07:40:19;;;;;;;;;;;;;;;13.72;64.53;99617.22;4987487;28;8373;-74
2023/12/24 07:42:45;;;;;;;;;;;;;;;13.72;64.63;99608.63;4982095;28;6788;-76
2023/12/24 07:45:11;;;;;;;;;;;;;;;13.73;64.47;99607.78;4976762;28;7193;-75
2023/12/24 07:47:36;;;;;;;;;;;;;;;13.73;64.31;99612.91;4984464;28;7180;-74
2023/12/24 07:50:02;;;;;;;;;;;;;;;13.72;64.35;99606.91;4983933;28;6825;-74
2023/12/24 07:52:27;;;;;;;;;;;;;;;13.73;63.95;99603.50;4970965;28;8450;-75
2023/12/24 07:54:53;;;;;;;;;;;;;;;13.72;63.98;99601.78;4986284;28;6804;-76
2023/12/24 07:57:19;;;;;;;;;;;;;;;13.73;64.40;99611.22;4981777;28;6808;-75
2023/12/24 07:59:44;;;;;;;;;;;;;;;13.73;64.14;99608.66;4985156;28;7176;-76
2023/12/24 08:02:10;;;;;;;;;;;;;;;13.72;64.78;99601.78;4994983;28;6795;-75
2023/12/24 08:04:35;;;;;;;;;;;;;;;13.73;64.63;99595.78;4971328;28;6941;-75
2023/12/24 08:07:01;;;;;;;;;;;;;;;13.74;64.87;99605.25;4986355;28;6780;-74
2023/12/24 08:09:27;;;;;;;;;;;;;;;13.74;64.47;99599.22;4981249;28;8179;-75
2023/12/24 08:11:53;;;;;;;;;;;;;;;13.75;64.23;99609.56;4978308;28;6935;-76
2023/12/24 08:14:18;;;;;;;;;;;;;;;13.76;63.91;99605.25;4989430;28;6799;-75
2023/12/24 08:16:43;;;;;;;;;;;;;;;13.77;64.05;99604.44;4987167;28;7146;-74
2023/12/24 08:19:09;;;;;;;;;;;;;;;13.78;64.19;99613.91;4967767;28;7032;-76
2023/12/24 08:21:34;;;;;;;;;;;;;;;13.79;64.57;99609.63;4985576;28;6780;-75
2023/12/24 08:24:00;;;;;;;;;;;;;;;13.80;64.84;99607.09;4979182;28;6768;-76
2023/12/24 08:26:26;;;;;;;;;;;;;;;13.79;64.82;99618.22;4987875;28;6844;-75
2023/12/24 08:28:51;;;;;;;;;;;;;;;13.82;64.03;99617.44;4988781;28;7235;-75
2023/12/24 08:31:17;;;;;;;;;;;;;;;13.82;64.74;99612.28;4970487;28;6970;-75
2023/12/24 08:33:43;;;;;;;;;;;;;;;13.85;63.96;99607.19;4988828;28;8173;-75
2023/12/24 08:36:10;;;;;;;;;;;;;;;13.85;64.77;99623.50;4984369;28;7126;-74
2023/12/24 08:38:35;;;;;;;;;;;;;;;13.88;64.30;99612.38;4985813;28;7143;-75
2023/12/24 08:41:00;;;;;;;;;;;;;;;13.90;64.28;99621.00;4985521;28;6972;-75
2023/12/24 08:43:26;;;;;;;;;;;;;;;13.91;64.83;99615.06;4983302;28;6788;-75
2023/12/24 08:45:51;;;;;;;;;;;;;;;13.92;64.19;99611.63;4991756;28;7143;-75
2023/12/24 08:48:17;;;;;;;;;;;;;;;13.94;64.69;99602.22;5005719;28;6967;-75
2023/12/24 08:50:43;;;;;;;;;;;;;;;13.96;65.03;99613.44;4973129;28;6804;-76
2023/12/24 08:53:08;;;;;;;;;;;;;;;13.97;64.79;99597.13;4997344;28;7370;-76
2023/12/24 08:55:34;;;;;;;;;;;;;;;13.98;63.83;99606.59;4979517;28;6948;-76
2023/12/24 08:57:59;;;;;;;;;;;;;;;14.00;64.17;99614.38;4962753;28;7231;-77
2023/12/24 09:00:25;;;;;;;;;;;;;;;14.02;64.09;99600.69;4969546;28;7257;-77
2023/12/24 09:02:51;;;;;;;;;;;;;;;14.02;64.13;99617.84;4959024;28;7250;-76
2023/12/24 09:05:18;;;;;;;;;;;;;;;14.03;64.53;99615.31;4986870;28;7055;-76
2023/12/24 09:07:44;;;;;;;;;;;;;;;14.05;64.99;99619.63;4986228;28;7267;-76
2023/12/24 09:10:10;;;;;;;;;;;;;;;14.05;64.46;99627.34;4969592;28;7275;-76
2023/12/24 09:12:35;;;;;;;;;;;;;;;14.07;64.50;99617.94;4979366;28;7205;-76
2023/12/24 09:15:00;;;;;;;;;;;;;;;14.08;64.11;99614.53;4996588;28;6800;-76
2023/12/24 09:17:26;;;;;;;;;;;;;;;14.10;63.89;99620.56;4983262;28;7141;-77
2023/12/24 09:19:51;;;;;;;;;;;;;;;14.12;64.81;99611.19;4995937;28;6859;-76
2023/12/24 09:22:17;;;;;;;;;;;;;;;14.16;64.22;99612.97;4975239;28;6878;-76
2023/12/24 09:24:42;;;;;;;;;;;;;;;14.16;64.68;99611.28;4961793;28;7053;-76
2023/12/24 09:27:08;;;;;;;;;;;;;;;14.18;64.69;99611.31;4978313;28;6783;-75
2023/12/24 09:29:33;;;;;;;;;;;;;;;14.21;64.37;99616.53;4981988;28;6790;-75
2023/12/24 09:31:59;;;;;;;;;;;;;;;14.22;64.25;99618.28;4961296;28;6956;-76
2023/12/24 09:34:24;;;;;;;;;;;;;;;14.25;64.88;99608.03;4979420;28;6877;-76
2023/12/24 09:36:50;;;;;;;;;;;;;;;14.26;64.79;99614.06;4983042;28;6787;-76
2023/12/24 09:39:15;;;;;;;;;;;;;;;14.27;64.52;99619.22;4976240;28;6787;-76
2023/12/24 09:41:41;;;;;;;;;;;;;;;14.29;64.25;99627.00;4975714;28;6780;-76
2023/12/24 09:44:07;;;;;;;;;;;;;;;14.30;64.03;99632.19;4975111;28;8443;-76
2023/12/24 09:46:33;;;;;;;;;;;;;;;14.33;64.50;99631.38;4958677;28;7722;-76
2023/12/24 09:48:58;;;;;;;;;;;;;;;14.34;64.64;99627.97;4977540;28;7201;-76
2023/12/24 09:51:25;;;;;;;;;;;;;;;14.38;64.80;99631.44;4978778;28;7260;-76
2023/12/24 09:53:51;;;;;;;;;;;;;;;14.41;64.65;99636.69;4990741;28;6975;-76
2023/12/24 09:56:16;;;;;;;;;;;;;;;14.42;64.53;99636.69;4974790;28;8147;-75
2023/12/24 09:58:43;;;;;;;;;;;;;;;14.44;64.79;99634.16;4983881;28;6987;-75
2023/12/24 10:01:09;;;;;;;;;;;;;;;14.46;64.28;99642.78;4965505;28;7442;-75
2023/12/24 10:03:35;;;;;;;;;;;;;;;14.46;64.96;99635.06;4980636;28;6988;-77
2023/12/24 10:06:07;;;;;;;;;;;;;;;14.46;64.39;99619.59;4974216;28;6947;-76
2023/12/24 10:08:33;;;;;;;;;;;;;;;14.45;64.52;99633.31;4977595;28;7008;-76
2023/12/24 10:11:12;;;;;;;;;;;;;;;14.46;64.42;99606.69;4973442;28;10207;-77
2023/12/24 10:13:38;;;;;;;;;;;;;;;14.47;64.60;99618.75;4980559;28;7348;-77
2023/12/24 10:16:05;;;;;;;;;;;;;;;14.47;64.69;99607.59;4974990;28;7233;-76
2023/12/24 10:18:31;;;;;;;;;;;;;;;14.48;65.23;99610.16;4974178;28;6812;-77
2023/12/24 10:21:05;;;;;;;;;;;;;;;14.50;64.54;99608.50;4976741;28;6845;-76
2023/12/24 10:23:31;;;;;;;;;;;;;;;14.50;64.31;99605.94;4992969;28;7320;-77
2023/12/24 10:26:08;;;;;;;;;;;;;;;14.53;64.17;99592.22;4976877;28;7008;-76
2023/12/24 10:28:46;;;;;;;;;;;;;;;14.52;64.52;99588.78;4976330;28;7205;-76
2023/12/24 10:31:12;;;;;;;;;;;;;;;14.54;64.54;99599.13;4978796;28;6819;-77
2023/12/24 10:33:39;;;;;;;;;;;;;;;14.54;64.75;99604.28;4962381;28;7273;-78
2023/12/24 10:36:06;;;;;;;;;;;;;;;14.58;64.58;99575.13;4976092;23;7200;-77
2023/12/24 10:38:32;;;;;;;;;;;;;;;14.57;64.53;99594.88;4996864;23;7075;-76
2023/12/24 10:40:57;;;;;;;;;;;;;;;14.60;64.54;99593.22;4949365;28;7008;-77
2023/12/24 10:43:23;;;;;;;;;;;;;;;14.61;64.58;99592.38;4988117;28;6823;-77
2023/12/24 10:45:50;;;;;;;;;;;;;;;14.60;64.50;99588.91;4953000;28;6918;-78
2023/12/24 10:48:15;;;;;;;;;;;;;;;14.61;64.78;99585.50;4987974;28;6970;-76
2023/12/24 10:50:41;;;;;;;;;;;;;;;14.62;64.81;99591.53;4970258;28;6775;-77
2023/12/24 10:53:06;;;;;;;;;;;;;;;14.63;64.52;99588.09;4977472;28;7086;-78
2023/12/24 10:55:34;;;;;;;;;;;;;;;14.64;64.75;99585.56;4972311;28;6804;-77
2023/12/24 10:58:28;;;;;;;;;;;;;;;14.65;64.56;99576.09;4973991;28;7038;-77
2023/12/24 11:00:53;;;;;;;;;;;;;;;14.62;64.58;99605.28;4983328;28;8048;-77
2023/12/24 11:03:48;;;;;;;;;;;;;;;14.64;64.57;99582.09;4973218;28;6779;-77
2023/12/24 11:06:38;;;;;;;;;;;;;;;14.65;65.16;99586.41;4988787;28;7465;-77
2023/12/24 11:09:04;;;;;;;;;;;;;;;14.65;64.82;99573.53;4971147;28;7337;-78
2023/12/24 11:11:56;;;;;;;;;;;;;;;14.68;64.64;99578.75;4977120;28;6807;-80
2023/12/24 11:14:37;;;;;;;;;;;;;;;14.70;64.57;99582.22;4973160;28;7020;-78
2023/12/24 11:17:05;;;;;;;;;;;;;;;14.73;64.88;99569.41;4970153;28;7988;-78
2023/12/24 11:19:32;;;;;;;;;;;;;;;14.75;64.83;99549.66;4953529;28;7429;-77
2023/12/24 11:22:11;;;;;;;;;;;;;;;14.80;64.82;99560.94;4972175;28;6988;-79
2023/12/24 11:24:44;;;;;;;;;;;;;;;14.83;64.33;99550.66;4964543;28;8753;-78
2023/12/24 11:27:11;;;;;;;;;;;;;;;14.88;64.66;99555.91;4969034;28;6883;-79
2023/12/24 11:29:42;;;;;;;;;;;;;;;14.92;65.08;99541.34;4968978;28;6987;-80
2023/12/24 11:32:26;;;;;;;;;;;;;;;14.95;64.43;99528.50;4970533;28;7220;-79
2023/12/24 11:34:57;;;;;;;;;;;;;;;14.96;64.38;99543.13;4980497;28;7333;-80
2023/12/24 11:37:30;;;;;;;;;;;;;;;14.97;64.38;99534.56;4953928;28;6988;-82
2023/12/24 11:40:02;;;;;;;;;;;;;;;14.97;64.32;99532.00;4981179;28;6966;-79
2023/12/24 11:42:43;;;;;;;;;;;;;;;14.98;64.25;99513.09;4986551;28;6986;-78
2023/12/24 11:45:21;;;;;;;;;;;;;;;14.97;64.08;99512.19;4971206;28;7290;-80
2023/12/24 11:47:47;;;;;;;;;;;;;;;14.98;64.15;99510.50;4945072;28;7014;-80
2023/12/24 11:50:13;;;;;;;;;;;;;;;14.97;64.10;99490.72;4968978;28;6903;-78
2023/12/24 11:52:43;;;;;;;;;;;;;;;14.96;64.72;99510.47;4970101;28;7195;-78
2023/12/24 11:55:10;;;;;;;;;;;;;;;14.97;64.20;99521.66;4970601;28;6816;-79
2023/12/24 11:57:36;;;;;;;;;;;;;;;14.99;64.59;99514.81;4957355;28;7019;-79
2023/12/24 12:00:02;;;;;;;;;;;;;;;15.00;64.69;99527.72;4964197;28;6804;-79
2023/12/24 12:02:28;;;;;;;;;;;;;;;15.00;64.53;99537.19;4968334;28;6884;-79
2023/12/24 12:04:54;;;;;;;;;;;;;;;15.00;64.28;99538.03;4990178;28;6808;-79
2023/12/24 12:07:20;;;;;;;;;;;;;;;15.02;64.02;99544.94;4968583;28;7054;-78
2023/12/24 12:09:46;;;;;;;;;;;;;;;15.02;64.56;99543.22;4952228;28;7245;-78
2023/12/24 12:12:11;;;;;;;;;;;;;;;15.03;64.18;99533.78;4973216;28;6785;-79
2023/12/24 12:14:37;;;;;;;;;;;;;;;15.01;64.21;99528.59;4973616;28;6818;-78
2023/12/24 12:17:03;;;;;;;;;;;;;;;15.00;64.17;99519.13;4968558;28;8153;-79
2023/12/24 12:19:29;;;;;;;;;;;;;;;14.97;64.38;99532.84;4982949;28;6969;-76
2023/12/24 12:21:54;;;;;;;;;;;;;;;14.95;64.49;99521.63;4982315;28;6836;-76
2023/12/24 12:24:24;;;;;;;;;;;;;;;14.94;64.31;99531.91;4982260;28;6784;-76
2023/12/24 12:26:50;;;;;;;;;;;;;;;14.91;64.97;99524.13;4999338;28;11201;-77
2023/12/24 12:29:15;;;;;;;;;;;;;;;14.90;64.59;99519.81;4983533;28;6955;-76
2023/12/24 12:31:41;;;;;;;;;;;;;;;14.89;64.58;99524.09;4996128;28;6780;-77
2023/12/24 12:34:06;;;;;;;;;;;;;;;14.87;64.80;99528.38;4984945;28;6987;-76
2023/12/24 12:36:32;;;;;;;;;;;;;;;14.87;65.07;99515.47;4981790;28;7093;-76
2023/12/24 12:38:57;;;;;;;;;;;;;;;14.86;64.54;99508.59;4979904;28;6967;-76
2023/12/24 12:41:23;;;;;;;;;;;;;;;14.83;64.87;99514.56;4982695;28;6784;-77
2023/12/24 12:43:49;;;;;;;;;;;;;;;14.84;64.59;99500.81;4980412;28;7086;-78
2023/12/24 12:46:14;;;;;;;;;;;;;;;14.83;64.97;99499.06;4989380;28;7235;-78
2023/12/24 12:48:41;;;;;;;;;;;;;;;14.82;64.95;99502.50;4990025;28;7235;-76
2023/12/24 12:51:07;;;;;;;;;;;;;;;14.83;64.95;99501.66;4987522;28;7058;-76
2023/12/24 12:53:32;;;;;;;;;;;;;;;14.83;64.66;99490.50;5000242;28;7217;-77